sensor_id;sensor_type;location;lat;lon;timestamp;temperature;humidity
32614;DHT22;19031;51.400;6.770;2024-03-25T00:00:18;6.10;99.90
32614;DHT22;19031;51.400;6.770;2024-03-25T00:02:44;6.20;99.90
32614;DHT22;19031;51.400;6.770;2024-03-25T00:05:09;6.10;99.90
32614;DHT22;19031;51.400;6.770;2024-03-25T00:07:37;6.20;99.90
32614;DHT22;19031;51.400;6.770;2024-03-25T00:10:03;6.20;99.90
32614;DHT22;19031;51.400;6.770;2024-03-25T00:12:29;6.20;99.90
32614;DHT22;19031;51.400;6.770;2024-03-25T00:14:55;6.20;99.90
32614;DHT22;19031;51.400;6.770;2024-03-25T00:17:20;6.10;99.90
32614;DHT22;19031;51.400;6.770;2024-03-25T00:19:46;6.10;99.90
32614;DHT22;19031;51.400;6.770;2024-03-25T00:22:17;6.10;99.90
32614;DHT22;19031;51.400;6.770;2024-03-25T00:24:43;6.10;99.90
32614;DHT22;19031;51.400;6.770;2024-03-25T00:27:08;6.00;99.90
32614;DHT22;19031;51.400;6.770;2024-03-25T00:29:34;6.00;99.90
32614;DHT22;19031;51.400;6.770;2024-03-25T00:31:59;6.00;99.90
32614;DHT22;19031;51.400;6.770;2024-03-25T00:34:25;5.90;99.90
32614;DHT22;19031;51.400;6.770;2024-03-25T00:36:50;5.80;99.90
32614;DHT22;19031;51.400;6.770;2024-03-25T00:39:16;5.80;99.90
32614;DHT22;19031;51.400;6.770;2024-03-25T00:41:42;5.70;99.90
32614;DHT22;19031;51.400;6.770;2024-03-25T00:44:08;5.70;99.90
32614;DHT22;19031;51.400;6.770;2024-03-25T00:46:33;5.60;99.90
32614;DHT22;19031;51.400;6.770;2024-03-25T00:48:59;5.60;99.90
32614;DHT22;19031;51.400;6.770;2024-03-25T00:51:24;5.60;99.90
32614;DHT22;19031;51.400;6.770;2024-03-25T00:53:50;5.50;99.90
32614;DHT22;19031;51.400;6.770;2024-03-25T00:56:15;5.40;99.90
32614;DHT22;19031;51.400;6.770;2024-03-25T00:58:41;5.50;99.90
32614;DHT22;19031;51.400;6.770;2024-03-25T01:01:07;5.40;99.90
32614;DHT22;19031;51.400;6.770;2024-03-25T01:03:32;5.40;99.90
32614;DHT22;19031;51.400;6.770;2024-03-25T01:05:59;5.40;99.90
32614;DHT22;19031;51.400;6.770;2024-03-25T01:08:25;5.40;99.90
32614;DHT22;19031;51.400;6.770;2024-03-25T01:10:50;5.30;99.90
32614;DHT22;19031;51.400;6.770;2024-03-25T01:13:16;5.20;99.90
32614;DHT22;19031;51.400;6.770;2024-03-25T01:15:41;5.20;99.90
32614;DHT22;19031;51.400;6.770;2024-03-25T01:18:07;5.20;99.90
32614;DHT22;19031;51.400;6.770;2024-03-25T01:20:33;5.20;99.90
32614;DHT22;19031;51.400;6.770;2024-03-25T01:22:59;5.20;99.90
32614;DHT22;19031;51.400;6.770;2024-03-25T01:25:24;5.10;99.90
32614;DHT22;19031;51.400;6.770;2024-03-25T01:27:50;5.10;99.90
32614;DHT22;19031;51.400;6.770;2024-03-25T01:30:17;5.10;99.90
32614;DHT22;19031;51.400;6.770;2024-03-25T01:32:44;5.10;99.90
32614;DHT22;19031;51.400;6.770;2024-03-25T01:35:11;5.00;99.90
32614;DHT22;19031;51.400;6.770;2024-03-25T01:37:37;5.00;99.90
32614;DHT22;19031;51.400;6.770;2024-03-25T01:40:03;5.00;99.90
32614;DHT22;19031;51.400;6.770;2024-03-25T01:42:30;5.00;99.90
32614;DHT22;19031;51.400;6.770;2024-03-25T01:44:55;5.00;99.90
32614;DHT22;19031;51.400;6.770;2024-03-25T01:47:21;5.00;99.90
32614;DHT22;19031;51.400;6.770;2024-03-25T01:49:47;4.90;99.90
32614;DHT22;19031;51.400;6.770;2024-03-25T01:52:13;4.90;99.90
32614;DHT22;19031;51.400;6.770;2024-03-25T01:54:39;5.00;99.90
32614;DHT22;19031;51.400;6.770;2024-03-25T01:57:05;5.00;99.90
32614;DHT22;19031;51.400;6.770;2024-03-25T01:59:31;4.90;99.90
32614;DHT22;19031;51.400;6.770;2024-03-25T02:01:57;4.90;99.90
32614;DHT22;19031;51.400;6.770;2024-03-25T02:04:23;5.00;99.90
32614;DHT22;19031;51.400;6.770;2024-03-25T02:06:49;5.00;99.90
32614;DHT22;19031;51.400;6.770;2024-03-25T02:09:15;4.80;99.90
32614;DHT22;19031;51.400;6.770;2024-03-25T02:11:42;4.80;99.90
32614;DHT22;19031;51.400;6.770;2024-03-25T02:14:07;4.80;99.90
32614;DHT22;19031;51.400;6.770;2024-03-25T02:16:34;4.80;99.90
32614;DHT22;19031;51.400;6.770;2024-03-25T02:18:59;4.70;99.90
32614;DHT22;19031;51.400;6.770;2024-03-25T02:21:25;4.70;99.90
32614;DHT22;19031;51.400;6.770;2024-03-25T02:23:53;4.80;99.90
32614;DHT22;19031;51.400;6.770;2024-03-25T02:26:20;4.70;99.90
32614;DHT22;19031;51.400;6.770;2024-03-25T02:28:45;4.70;99.90
32614;DHT22;19031;51.400;6.770;2024-03-25T02:31:11;4.60;99.90
32614;DHT22;19031;51.400;6.770;2024-03-25T02:33:36;4.60;99.90
32614;DHT22;19031;51.400;6.770;2024-03-25T02:36:02;4.70;99.90
32614;DHT22;19031;51.400;6.770;2024-03-25T02:38:28;4.60;99.90
32614;DHT22;19031;51.400;6.770;2024-03-25T02:40:54;4.60;99.90
32614;DHT22;19031;51.400;6.770;2024-03-25T02:43:20;4.60;99.90
32614;DHT22;19031;51.400;6.770;2024-03-25T02:45:46;4.60;99.90
32614;DHT22;19031;51.400;6.770;2024-03-25T02:48:12;4.60;99.90
32614;DHT22;19031;51.400;6.770;2024-03-25T02:50:38;4.50;99.90
32614;DHT22;19031;51.400;6.770;2024-03-25T02:53:04;4.40;99.90
32614;DHT22;19031;51.400;6.770;2024-03-25T02:55:29;4.50;99.90
32614;DHT22;19031;51.400;6.770;2024-03-25T02:57:55;4.50;99.90
32614;DHT22;19031;51.400;6.770;2024-03-25T03:00:20;4.50;99.90
32614;DHT22;19031;51.400;6.770;2024-03-25T03:02:46;4.40;99.90
32614;DHT22;19031;51.400;6.770;2024-03-25T03:05:11;4.40;99.90
32614;DHT22;19031;51.400;6.770;2024-03-25T03:07:37;4.50;99.90
32614;DHT22;19031;51.400;6.770;2024-03-25T03:10:03;4.50;99.90
32614;DHT22;19031;51.400;6.770;2024-03-25T03:12:28;4.50;99.90
32614;DHT22;19031;51.400;6.770;2024-03-25T03:14:54;4.50;99.90
32614;DHT22;19031;51.400;6.770;2024-03-25T03:17:19;4.60;99.90
32614;DHT22;19031;51.400;6.770;2024-03-25T03:19:45;4.70;99.90
32614;DHT22;19031;51.400;6.770;2024-03-25T03:22:11;4.60;99.90
32614;DHT22;19031;51.400;6.770;2024-03-25T03:24:38;4.60;99.90
32614;DHT22;19031;51.400;6.770;2024-03-25T03:27:04;4.70;99.90
32614;DHT22;19031;51.400;6.770;2024-03-25T03:29:30;4.70;99.90
32614;DHT22;19031;51.400;6.770;2024-03-25T03:31:55;4.80;99.90
32614;DHT22;19031;51.400;6.770;2024-03-25T03:34:21;4.80;99.90
32614;DHT22;19031;51.400;6.770;2024-03-25T03:36:46;4.80;99.90
32614;DHT22;19031;51.400;6.770;2024-03-25T03:39:12;4.80;99.90
32614;DHT22;19031;51.400;6.770;2024-03-25T03:41:39;4.90;99.90
32614;DHT22;19031;51.400;6.770;2024-03-25T03:44:04;4.80;99.90
32614;DHT22;19031;51.400;6.770;2024-03-25T03:46:30;4.90;99.90
32614;DHT22;19031;51.400;6.770;2024-03-25T03:48:56;4.90;99.90
32614;DHT22;19031;51.400;6.770;2024-03-25T03:51:21;4.90;99.90
32614;DHT22;19031;51.400;6.770;2024-03-25T03:53:47;4.90;99.90
32614;DHT22;19031;51.400;6.770;2024-03-25T03:56:12;5.00;99.90
32614;DHT22;19031;51.400;6.770;2024-03-25T03:58:38;4.90;99.90
32614;DHT22;19031;51.400;6.770;2024-03-25T04:01:03;5.00;99.90
32614;DHT22;19031;51.400;6.770;2024-03-25T04:03:30;4.90;99.90
32614;DHT22;19031;51.400;6.770;2024-03-25T04:05:56;4.90;99.90
32614;DHT22;19031;51.400;6.770;2024-03-25T04:08:21;5.00;99.90
32614;DHT22;19031;51.400;6.770;2024-03-25T04:10:47;5.00;99.90
32614;DHT22;19031;51.400;6.770;2024-03-25T04:13:13;5.10;99.90
32614;DHT22;19031;51.400;6.770;2024-03-25T04:15:40;5.10;99.90
32614;DHT22;19031;51.400;6.770;2024-03-25T04:18:07;5.00;99.90
32614;DHT22;19031;51.400;6.770;2024-03-25T04:20:40;5.00;99.90
32614;DHT22;19031;51.400;6.770;2024-03-25T04:23:06;5.00;99.90
32614;DHT22;19031;51.400;6.770;2024-03-25T04:25:32;5.00;99.90
32614;DHT22;19031;51.400;6.770;2024-03-25T04:27:58;5.00;99.90
32614;DHT22;19031;51.400;6.770;2024-03-25T04:30:24;4.90;99.90
32614;DHT22;19031;51.400;6.770;2024-03-25T04:32:50;4.90;99.90
32614;DHT22;19031;51.400;6.770;2024-03-25T04:35:15;4.90;99.90
32614;DHT22;19031;51.400;6.770;2024-03-25T04:37:41;5.10;99.90
32614;DHT22;19031;51.400;6.770;2024-03-25T04:40:07;5.10;99.90
32614;DHT22;19031;51.400;6.770;2024-03-25T04:42:33;5.00;99.90
32614;DHT22;19031;51.400;6.770;2024-03-25T04:44:59;5.10;99.90
32614;DHT22;19031;51.400;6.770;2024-03-25T04:47:25;5.10;99.90
32614;DHT22;19031;51.400;6.770;2024-03-25T04:49:50;5.20;99.90
32614;DHT22;19031;51.400;6.770;2024-03-25T04:52:17;5.10;99.90
32614;DHT22;19031;51.400;6.770;2024-03-25T04:54:43;5.10;99.90
32614;DHT22;19031;51.400;6.770;2024-03-25T04:57:08;5.20;99.90
32614;DHT22;19031;51.400;6.770;2024-03-25T04:59:34;5.20;99.90
32614;DHT22;19031;51.400;6.770;2024-03-25T05:02:00;5.20;99.90
32614;DHT22;19031;51.400;6.770;2024-03-25T05:04:26;5.20;99.90
32614;DHT22;19031;51.400;6.770;2024-03-25T05:06:51;5.10;99.90
32614;DHT22;19031;51.400;6.770;2024-03-25T05:09:17;5.10;99.90
32614;DHT22;19031;51.400;6.770;2024-03-25T05:11:43;5.10;99.90
32614;DHT22;19031;51.400;6.770;2024-03-25T05:14:09;5.00;99.90
32614;DHT22;19031;51.400;6.770;2024-03-25T05:16:34;5.10;99.90
32614;DHT22;19031;51.400;6.770;2024-03-25T05:19:00;5.00;99.90
32614;DHT22;19031;51.400;6.770;2024-03-25T05:21:25;5.10;99.90
32614;DHT22;19031;51.400;6.770;2024-03-25T05:23:51;5.10;99.90
32614;DHT22;19031;51.400;6.770;2024-03-25T05:26:17;5.10;99.90
32614;DHT22;19031;51.400;6.770;2024-03-25T05:28:42;5.10;99.90
32614;DHT22;19031;51.400;6.770;2024-03-25T05:31:08;5.10;99.90
32614;DHT22;19031;51.400;6.770;2024-03-25T05:33:34;5.10;99.90
32614;DHT22;19031;51.400;6.770;2024-03-25T05:36:01;5.20;99.90
32614;DHT22;19031;51.400;6.770;2024-03-25T05:38:27;5.20;99.90
32614;DHT22;19031;51.400;6.770;2024-03-25T05:40:53;5.20;99.90
32614;DHT22;19031;51.400;6.770;2024-03-25T05:43:19;5.30;99.90
32614;DHT22;19031;51.400;6.770;2024-03-25T05:45:52;5.40;99.90
32614;DHT22;19031;51.400;6.770;2024-03-25T05:48:19;5.40;99.90
32614;DHT22;19031;51.400;6.770;2024-03-25T05:50:44;5.50;99.90
32614;DHT22;19031;51.400;6.770;2024-03-25T05:53:10;5.60;99.90
32614;DHT22;19031;51.400;6.770;2024-03-25T05:55:36;5.60;99.90
32614;DHT22;19031;51.400;6.770;2024-03-25T05:58:02;5.50;99.90
32614;DHT22;19031;51.400;6.770;2024-03-25T06:00:29;5.70;99.90
32614;DHT22;19031;51.400;6.770;2024-03-25T06:02:56;5.80;99.90
32614;DHT22;19031;51.400;6.770;2024-03-25T06:05:22;5.90;99.90
32614;DHT22;19031;51.400;6.770;2024-03-25T06:07:47;5.90;99.90
32614;DHT22;19031;51.400;6.770;2024-03-25T06:10:13;6.00;99.90
32614;DHT22;19031;51.400;6.770;2024-03-25T06:12:39;6.10;99.90
32614;DHT22;19031;51.400;6.770;2024-03-25T06:15:05;6.10;99.90
32614;DHT22;19031;51.400;6.770;2024-03-25T06:17:30;6.20;99.90
32614;DHT22;19031;51.400;6.770;2024-03-25T06:19:56;6.30;99.90
32614;DHT22;19031;51.400;6.770;2024-03-25T06:22:21;6.30;99.90
32614;DHT22;19031;51.400;6.770;2024-03-25T06:24:47;6.40;99.90
32614;DHT22;19031;51.400;6.770;2024-03-25T06:27:15;6.40;99.90
32614;DHT22;19031;51.400;6.770;2024-03-25T06:29:42;6.40;99.90
32614;DHT22;19031;51.400;6.770;2024-03-25T06:32:11;6.40;99.90
32614;DHT22;19031;51.400;6.770;2024-03-25T06:34:56;6.40;99.90
32614;DHT22;19031;51.400;6.770;2024-03-25T06:37:25;6.40;99.90
32614;DHT22;19031;51.400;6.770;2024-03-25T06:39:50;6.40;99.90
32614;DHT22;19031;51.400;6.770;2024-03-25T06:42:16;6.50;99.90
32614;DHT22;19031;51.400;6.770;2024-03-25T06:44:42;6.50;99.90
32614;DHT22;19031;51.400;6.770;2024-03-25T06:47:08;6.40;99.90
32614;DHT22;19031;51.400;6.770;2024-03-25T06:49:34;6.30;99.90
32614;DHT22;19031;51.400;6.770;2024-03-25T06:52:00;6.40;99.90
32614;DHT22;19031;51.400;6.770;2024-03-25T06:54:25;6.70;99.90
32614;DHT22;19031;51.400;6.770;2024-03-25T06:56:51;6.90;99.90
32614;DHT22;19031;51.400;6.770;2024-03-25T06:59:17;7.10;99.90
32614;DHT22;19031;51.400;6.770;2024-03-25T07:01:42;7.30;99.90
32614;DHT22;19031;51.400;6.770;2024-03-25T07:04:08;7.50;99.90
32614;DHT22;19031;51.400;6.770;2024-03-25T07:06:33;7.80;99.90
32614;DHT22;19031;51.400;6.770;2024-03-25T07:08:59;7.90;99.90
32614;DHT22;19031;51.400;6.770;2024-03-25T07:11:24;7.90;99.90
32614;DHT22;19031;51.400;6.770;2024-03-25T07:13:50;7.80;99.90
32614;DHT22;19031;51.400;6.770;2024-03-25T07:16:15;7.80;99.90
32614;DHT22;19031;51.400;6.770;2024-03-25T07:18:41;7.90;99.90
32614;DHT22;19031;51.400;6.770;2024-03-25T07:21:07;8.10;99.90
32614;DHT22;19031;51.400;6.770;2024-03-25T07:23:32;8.50;99.90
32614;DHT22;19031;51.400;6.770;2024-03-25T07:25:58;8.80;99.90
32614;DHT22;19031;51.400;6.770;2024-03-25T07:28:23;9.30;99.90
32614;DHT22;19031;51.400;6.770;2024-03-25T07:30:50;9.80;99.90
32614;DHT22;19031;51.400;6.770;2024-03-25T07:33:17;10.20;99.90
32614;DHT22;19031;51.400;6.770;2024-03-25T07:35:45;10.40;99.90
32614;DHT22;19031;51.400;6.770;2024-03-25T07:38:10;10.40;99.90
32614;DHT22;19031;51.400;6.770;2024-03-25T07:40:36;10.30;99.90
32614;DHT22;19031;51.400;6.770;2024-03-25T07:43:01;10.30;99.90
32614;DHT22;19031;51.400;6.770;2024-03-25T07:45:27;10.10;99.90
32614;DHT22;19031;51.400;6.770;2024-03-25T07:47:53;10.20;99.90
32614;DHT22;19031;51.400;6.770;2024-03-25T07:50:18;10.80;99.90
32614;DHT22;19031;51.400;6.770;2024-03-25T07:52:45;11.20;99.90
32614;DHT22;19031;51.400;6.770;2024-03-25T07:55:10;11.50;99.90
32614;DHT22;19031;51.400;6.770;2024-03-25T07:57:38;11.70;99.90
32614;DHT22;19031;51.400;6.770;2024-03-25T08:00:04;12.10;99.90
32614;DHT22;19031;51.400;6.770;2024-03-25T08:02:34;12.70;99.90
32614;DHT22;19031;51.400;6.770;2024-03-25T08:04:59;13.10;99.90
32614;DHT22;19031;51.400;6.770;2024-03-25T08:07:25;13.60;99.90
32614;DHT22;19031;51.400;6.770;2024-03-25T08:09:51;13.70;1.00
32614;DHT22;19031;51.400;6.770;2024-03-25T08:12:16;13.90;1.00
32614;DHT22;19031;51.400;6.770;2024-03-25T08:14:42;13.90;99.90
32614;DHT22;19031;51.400;6.770;2024-03-25T08:17:09;14.20;99.90
32614;DHT22;19031;51.400;6.770;2024-03-25T08:19:34;14.10;99.90
32614;DHT22;19031;51.400;6.770;2024-03-25T08:22:00;14.50;69.40
32614;DHT22;19031;51.400;6.770;2024-03-25T08:24:25;14.50;17.70
32614;DHT22;19031;51.400;6.770;2024-03-25T08:26:51;14.30;1.00
32614;DHT22;19031;51.400;6.770;2024-03-25T08:29:17;14.70;1.00
32614;DHT22;19031;51.400;6.770;2024-03-25T08:31:43;14.80;1.00
32614;DHT22;19031;51.400;6.770;2024-03-25T08:34:09;14.10;99.90
32614;DHT22;19031;51.400;6.770;2024-03-25T08:36:34;13.90;99.90
32614;DHT22;19031;51.400;6.770;2024-03-25T08:39:00;14.00;99.90
32614;DHT22;19031;51.400;6.770;2024-03-25T08:41:25;14.30;1.00
32614;DHT22;19031;51.400;6.770;2024-03-25T08:43:51;14.50;1.00
32614;DHT22;19031;51.400;6.770;2024-03-25T08:46:16;14.50;99.90
32614;DHT22;19031;51.400;6.770;2024-03-25T08:48:42;14.80;1.00
32614;DHT22;19031;51.400;6.770;2024-03-25T08:51:08;14.80;1.00
32614;DHT22;19031;51.400;6.770;2024-03-25T08:53:33;14.80;99.90
32614;DHT22;19031;51.400;6.770;2024-03-25T08:55:59;14.90;99.90
32614;DHT22;19031;51.400;6.770;2024-03-25T08:58:25;14.80;99.90
32614;DHT22;19031;51.400;6.770;2024-03-25T09:00:50;14.90;99.90
32614;DHT22;19031;51.400;6.770;2024-03-25T09:03:16;15.10;99.90
32614;DHT22;19031;51.400;6.770;2024-03-25T09:05:42;15.30;99.90
32614;DHT22;19031;51.400;6.770;2024-03-25T09:08:07;15.70;99.90
32614;DHT22;19031;51.400;6.770;2024-03-25T09:10:37;16.20;99.90
32614;DHT22;19031;51.400;6.770;2024-03-25T09:13:21;16.70;70.90
32614;DHT22;19031;51.400;6.770;2024-03-25T09:15:46;17.30;1.00
32614;DHT22;19031;51.400;6.770;2024-03-25T09:18:12;17.30;1.00
32614;DHT22;19031;51.400;6.770;2024-03-25T09:20:37;17.10;99.90
32614;DHT22;19031;51.400;6.770;2024-03-25T09:23:03;16.00;99.90
32614;DHT22;19031;51.400;6.770;2024-03-25T09:25:29;16.20;99.90
32614;DHT22;19031;51.400;6.770;2024-03-25T09:27:54;16.60;1.00
32614;DHT22;19031;51.400;6.770;2024-03-25T09:30:20;16.90;99.90
32614;DHT22;19031;51.400;6.770;2024-03-25T09:32:47;17.00;99.90
32614;DHT22;19031;51.400;6.770;2024-03-25T09:35:13;16.80;99.90
32614;DHT22;19031;51.400;6.770;2024-03-25T09:37:38;16.00;99.90
32614;DHT22;19031;51.400;6.770;2024-03-25T09:40:05;15.90;99.90
32614;DHT22;19031;51.400;6.770;2024-03-25T09:42:45;15.70;99.90
32614;DHT22;19031;51.400;6.770;2024-03-25T09:45:13;15.90;99.90
32614;DHT22;19031;51.400;6.770;2024-03-25T09:47:40;16.30;99.90
32614;DHT22;19031;51.400;6.770;2024-03-25T09:50:08;16.40;99.90
32614;DHT22;19031;51.400;6.770;2024-03-25T09:52:36;16.80;99.90
32614;DHT22;19031;51.400;6.770;2024-03-25T09:55:01;16.70;99.90
32614;DHT22;19031;51.400;6.770;2024-03-25T09:57:27;16.80;99.90
32614;DHT22;19031;51.400;6.770;2024-03-25T09:59:53;17.20;99.90
32614;DHT22;19031;51.400;6.770;2024-03-25T10:02:19;17.50;99.90
32614;DHT22;19031;51.400;6.770;2024-03-25T10:04:49;17.70;99.90
32614;DHT22;19031;51.400;6.770;2024-03-25T10:07:25;17.80;99.90
32614;DHT22;19031;51.400;6.770;2024-03-25T10:09:51;17.40;99.90
32614;DHT22;19031;51.400;6.770;2024-03-25T10:12:17;17.20;99.90
32614;DHT22;19031;51.400;6.770;2024-03-25T10:14:43;17.00;99.90
32614;DHT22;19031;51.400;6.770;2024-03-25T10:17:08;16.90;99.90
32614;DHT22;19031;51.400;6.770;2024-03-25T10:19:34;17.20;99.90
32614;DHT22;19031;51.400;6.770;2024-03-25T10:22:07;17.90;99.90
32614;DHT22;19031;51.400;6.770;2024-03-25T10:24:45;18.50;99.90
32614;DHT22;19031;51.400;6.770;2024-03-25T10:27:18;19.10;99.90
32614;DHT22;19031;51.400;6.770;2024-03-25T10:29:48;19.40;99.90
32614;DHT22;19031;51.400;6.770;2024-03-25T10:32:14;18.90;99.90
32614;DHT22;19031;51.400;6.770;2024-03-25T10:34:40;18.60;99.90
32614;DHT22;19031;51.400;6.770;2024-03-25T10:37:09;18.50;99.90
32614;DHT22;19031;51.400;6.770;2024-03-25T10:39:43;18.90;99.90
32614;DHT22;19031;51.400;6.770;2024-03-25T10:42:13;19.40;99.90
32614;DHT22;19031;51.400;6.770;2024-03-25T10:44:40;19.50;99.90
32614;DHT22;19031;51.400;6.770;2024-03-25T10:47:06;19.60;99.90
32614;DHT22;19031;51.400;6.770;2024-03-25T10:49:49;20.10;99.90
32614;DHT22;19031;51.400;6.770;2024-03-25T10:52:15;20.40;99.90
32614;DHT22;19031;51.400;6.770;2024-03-25T10:54:43;20.30;99.90
32614;DHT22;19031;51.400;6.770;2024-03-25T10:57:13;20.70;99.90
32614;DHT22;19031;51.400;6.770;2024-03-25T10:59:41;21.10;99.90
32614;DHT22;19031;51.400;6.770;2024-03-25T11:02:08;21.40;99.90
32614;DHT22;19031;51.400;6.770;2024-03-25T11:04:34;21.50;99.90
32614;DHT22;19031;51.400;6.770;2024-03-25T11:07:11;21.60;99.90
32614;DHT22;19031;51.400;6.770;2024-03-25T11:09:38;21.30;99.90
32614;DHT22;19031;51.400;6.770;2024-03-25T11:12:04;20.50;99.90
32614;DHT22;19031;51.400;6.770;2024-03-25T11:14:30;20.20;99.90
32614;DHT22;19031;51.400;6.770;2024-03-25T11:16:57;19.40;99.90
32614;DHT22;19031;51.400;6.770;2024-03-25T11:19:29;19.20;99.90
32614;DHT22;19031;51.400;6.770;2024-03-25T11:22:06;19.20;99.90
32614;DHT22;19031;51.400;6.770;2024-03-25T11:24:31;19.50;99.90
32614;DHT22;19031;51.400;6.770;2024-03-25T11:26:58;19.70;99.90
32614;DHT22;19031;51.400;6.770;2024-03-25T11:29:26;20.00;99.90
32614;DHT22;19031;51.400;6.770;2024-03-25T11:31:53;20.20;99.90
32614;DHT22;19031;51.400;6.770;2024-03-25T11:34:19;20.30;99.90
32614;DHT22;19031;51.400;6.770;2024-03-25T11:36:45;20.80;99.90
32614;DHT22;19031;51.400;6.770;2024-03-25T11:39:13;21.00;99.90
32614;DHT22;19031;51.400;6.770;2024-03-25T11:41:45;20.90;99.90
32614;DHT22;19031;51.400;6.770;2024-03-25T11:44:12;21.10;99.90
32614;DHT22;19031;51.400;6.770;2024-03-25T11:46:39;21.10;99.90
32614;DHT22;19031;51.400;6.770;2024-03-25T11:49:12;20.50;99.90
32614;DHT22;19031;51.400;6.770;2024-03-25T11:51:37;20.70;99.90
32614;DHT22;19031;51.400;6.770;2024-03-25T11:54:06;20.60;99.90
32614;DHT22;19031;51.400;6.770;2024-03-25T11:56:32;20.20;99.90
32614;DHT22;19031;51.400;6.770;2024-03-25T11:59:01;20.30;99.90
32614;DHT22;19031;51.400;6.770;2024-03-25T12:01:28;20.50;99.90
32614;DHT22;19031;51.400;6.770;2024-03-25T12:03:54;20.30;99.90
32614;DHT22;19031;51.400;6.770;2024-03-25T12:06:20;20.10;99.90
32614;DHT22;19031;51.400;6.770;2024-03-25T12:08:45;20.10;99.90
32614;DHT22;19031;51.400;6.770;2024-03-25T12:11:31;20.00;99.90
32614;DHT22;19031;51.400;6.770;2024-03-25T12:13:57;20.20;99.90
32614;DHT22;19031;51.400;6.770;2024-03-25T12:16:24;20.90;99.90
32614;DHT22;19031;51.400;6.770;2024-03-25T12:18:51;21.00;99.90
32614;DHT22;19031;51.400;6.770;2024-03-25T12:21:19;21.40;99.90
32614;DHT22;19031;51.400;6.770;2024-03-25T12:23:46;21.80;99.90
32614;DHT22;19031;51.400;6.770;2024-03-25T12:26:13;21.70;99.90
32614;DHT22;19031;51.400;6.770;2024-03-25T12:28:39;22.00;99.90
32614;DHT22;19031;51.400;6.770;2024-03-25T12:31:08;22.10;99.90
32614;DHT22;19031;51.400;6.770;2024-03-25T12:33:40;21.90;99.90
32614;DHT22;19031;51.400;6.770;2024-03-25T12:36:06;22.40;99.90
32614;DHT22;19031;51.400;6.770;2024-03-25T12:38:32;22.60;99.90
32614;DHT22;19031;51.400;6.770;2024-03-25T12:41:05;22.20;99.90
32614;DHT22;19031;51.400;6.770;2024-03-25T12:43:35;21.40;99.90
32614;DHT22;19031;51.400;6.770;2024-03-25T12:46:01;20.60;99.90
32614;DHT22;19031;51.400;6.770;2024-03-25T12:48:29;20.50;99.90
32614;DHT22;19031;51.400;6.770;2024-03-25T12:50:54;21.10;99.90
32614;DHT22;19031;51.400;6.770;2024-03-25T12:53:22;21.50;99.90
32614;DHT22;19031;51.400;6.770;2024-03-25T12:55:48;21.50;99.90
32614;DHT22;19031;51.400;6.770;2024-03-25T12:58:14;21.40;99.90
32614;DHT22;19031;51.400;6.770;2024-03-25T13:00:40;21.60;99.90
32614;DHT22;19031;51.400;6.770;2024-03-25T13:03:07;22.10;99.90
32614;DHT22;19031;51.400;6.770;2024-03-25T13:05:34;22.60;99.90
32614;DHT22;19031;51.400;6.770;2024-03-25T13:08:00;23.00;99.90
32614;DHT22;19031;51.400;6.770;2024-03-25T13:10:27;22.70;99.90
32614;DHT22;19031;51.400;6.770;2024-03-25T13:12:53;22.30;99.90
32614;DHT22;19031;51.400;6.770;2024-03-25T13:15:18;22.00;99.90
32614;DHT22;19031;51.400;6.770;2024-03-25T13:17:44;21.70;99.90
32614;DHT22;19031;51.400;6.770;2024-03-25T13:20:10;21.30;99.90
32614;DHT22;19031;51.400;6.770;2024-03-25T13:22:37;21.20;99.90
32614;DHT22;19031;51.400;6.770;2024-03-25T13:25:03;21.20;99.90
32614;DHT22;19031;51.400;6.770;2024-03-25T13:27:29;21.50;99.90
32614;DHT22;19031;51.400;6.770;2024-03-25T13:29:55;21.70;99.90
32614;DHT22;19031;51.400;6.770;2024-03-25T13:32:21;21.80;99.90
32614;DHT22;19031;51.400;6.770;2024-03-25T13:34:47;21.60;99.90
32614;DHT22;19031;51.400;6.770;2024-03-25T13:37:13;21.30;99.90
32614;DHT22;19031;51.400;6.770;2024-03-25T13:39:38;21.30;99.90
32614;DHT22;19031;51.400;6.770;2024-03-25T13:42:04;21.30;99.90
32614;DHT22;19031;51.400;6.770;2024-03-25T13:44:30;21.40;99.90
32614;DHT22;19031;51.400;6.770;2024-03-25T13:46:56;21.90;99.90
32614;DHT22;19031;51.400;6.770;2024-03-25T13:49:21;21.80;99.90
32614;DHT22;19031;51.400;6.770;2024-03-25T13:51:51;21.90;99.90
32614;DHT22;19031;51.400;6.770;2024-03-25T13:54:21;22.20;99.90
32614;DHT22;19031;51.400;6.770;2024-03-25T13:56:47;22.00;99.90
32614;DHT22;19031;51.400;6.770;2024-03-25T13:59:12;22.20;99.90
32614;DHT22;19031;51.400;6.770;2024-03-25T14:01:38;22.40;99.90
32614;DHT22;19031;51.400;6.770;2024-03-25T14:04:05;21.80;99.90
32614;DHT22;19031;51.400;6.770;2024-03-25T14:06:32;21.80;99.90
32614;DHT22;19031;51.400;6.770;2024-03-25T14:08:58;22.10;99.90
32614;DHT22;19031;51.400;6.770;2024-03-25T14:11:24;22.10;99.90
32614;DHT22;19031;51.400;6.770;2024-03-25T14:13:50;21.80;99.90
32614;DHT22;19031;51.400;6.770;2024-03-25T14:16:17;21.60;99.90
32614;DHT22;19031;51.400;6.770;2024-03-25T14:18:42;21.30;99.90
32614;DHT22;19031;51.400;6.770;2024-03-25T14:21:08;21.50;99.90
32614;DHT22;19031;51.400;6.770;2024-03-25T14:23:34;21.50;99.90
32614;DHT22;19031;51.400;6.770;2024-03-25T14:25:59;21.50;99.90
32614;DHT22;19031;51.400;6.770;2024-03-25T14:28:25;21.80;99.90
32614;DHT22;19031;51.400;6.770;2024-03-25T14:30:51;22.20;99.90
32614;DHT22;19031;51.400;6.770;2024-03-25T14:33:17;22.20;99.90
32614;DHT22;19031;51.400;6.770;2024-03-25T14:35:43;22.30;99.90
32614;DHT22;19031;51.400;6.770;2024-03-25T14:38:08;22.10;99.90
32614;DHT22;19031;51.400;6.770;2024-03-25T14:40:38;21.20;99.90
32614;DHT22;19031;51.400;6.770;2024-03-25T14:43:04;20.80;99.90
32614;DHT22;19031;51.400;6.770;2024-03-25T14:45:29;20.60;99.90
32614;DHT22;19031;51.400;6.770;2024-03-25T14:47:55;20.40;99.90
32614;DHT22;19031;51.400;6.770;2024-03-25T14:50:21;20.80;99.90
32614;DHT22;19031;51.400;6.770;2024-03-25T14:52:46;21.00;99.90
32614;DHT22;19031;51.400;6.770;2024-03-25T14:55:12;20.40;99.90
32614;DHT22;19031;51.400;6.770;2024-03-25T14:57:37;21.00;99.90
32614;DHT22;19031;51.400;6.770;2024-03-25T15:00:03;21.20;99.90
32614;DHT22;19031;51.400;6.770;2024-03-25T15:02:30;20.80;99.90
32614;DHT22;19031;51.400;6.770;2024-03-25T15:04:59;20.60;99.90
32614;DHT22;19031;51.400;6.770;2024-03-25T15:07:26;20.40;99.90
32614;DHT22;19031;51.400;6.770;2024-03-25T15:09:53;20.60;99.90
32614;DHT22;19031;51.400;6.770;2024-03-25T15:12:19;20.40;99.90
32614;DHT22;19031;51.400;6.770;2024-03-25T15:14:46;20.40;99.90
32614;DHT22;19031;51.400;6.770;2024-03-25T15:17:12;20.70;99.90
32614;DHT22;19031;51.400;6.770;2024-03-25T15:19:37;21.10;99.90
32614;DHT22;19031;51.400;6.770;2024-03-25T15:22:03;21.20;99.90
32614;DHT22;19031;51.400;6.770;2024-03-25T15:24:29;21.20;99.90
32614;DHT22;19031;51.400;6.770;2024-03-25T15:26:55;21.40;99.90
32614;DHT22;19031;51.400;6.770;2024-03-25T15:29:21;21.60;99.90
32614;DHT22;19031;51.400;6.770;2024-03-25T15:31:46;21.60;99.90